This is the latest recevied weather packets stored in our database for station/object IZ1UKX-13. If no packets are shown the sender has not sent any weather packets the latest 10 day(s).
| Time | Temp. | Humidity | Pressure | Rain* | Wind** | Luminosity | Snow |
|---|---|---|---|---|---|---|---|
| 1777452892 | 21.67° C | 57% | 1022.7 hPa | 0 mm | - | 0 W/m² | - |
| 1777452592 | 21.11° C | 60% | 1022.7 hPa | 0 mm | - | 0 W/m² | - |
| 1777452292 | 20.56° C | 60% | 1022.7 hPa | 0 mm | - | 0 W/m² | - |
| 1777451991 | 20.56° C | 62% | 1022.7 hPa | 0 mm | - | 0 W/m² | - |
| 1777451692 | 20° C | 63% | 1023.2 hPa | 0 mm | - | 0 W/m² | - |
| 1777451392 | 19.44° C | 64% | 1023.2 hPa | 0 mm | - | 0 W/m² | - |
| 1777451092 | 19.44° C | 65% | 1023.2 hPa | 0 mm | - | 0 W/m² | - |
| 1777450792 | 19.44° C | 64% | 1023.2 hPa | 0 mm | - | 0 W/m² | - |
| 1777450492 | 18.89° C | 64% | 1023.2 hPa | 0 mm | - | 0 W/m² | - |
| 1777450467 | 19.44° C | 64% | 1023.2 hPa | 0 mm | - | 0 W/m² | - |
| 1777450442 | 19.44° C | 64% | 1023.2 hPa | 0 mm | - | 0 W/m² | - |
| 1777450142 | 19.44° C | 63% | 1023.2 hPa | 0 mm | - | 0 W/m² | - |
| 1777449842 | 18.89° C | 66% | 1023.2 hPa | 0 mm | - | 0 W/m² | - |
| 1777449541 | 18.33° C | 67% | 1023.2 hPa | 0 mm | - | 0 W/m² | - |
| 1777449242 | 17.78° C | 68% | 1023.6 hPa | 0 mm | - | 0 W/m² | - |
| 1777448942 | 17.78° C | 68% | 1023.6 hPa | 0 mm | - | 0 W/m² | - |
| 1777448642 | 17.22° C | 68% | 1023.8 hPa | 0 mm | - | 0 W/m² | - |
| 1777448617 | 17.22° C | 68% | 1023.6 hPa | 0 mm | - | 0 W/m² | - |
| 1777448592 | 17.78° C | 68% | 1023.6 hPa | 0 mm | - | 0 W/m² | - |
| 1777448292 | 17.78° C | 66% | 1023.6 hPa | 0 mm | - | 0 W/m² | - |
| 1777447992 | 18.89° C | 63% | 1023.2 hPa | 0 mm | - | 0 W/m² | - |
| 1777447692 | 19.44° C | 60% | 1023.2 hPa | 0 mm | - | 0 W/m² | - |
| 1777447392 | 20.56° C | 58% | 1023.2 hPa | 0 mm | - | 0 W/m² | - |
| 1777447092 | 20° C | 57% | 1023.2 hPa | 0 mm | - | 0 W/m² | - |
| 1777446791 | 18.89° C | 57% | 1023.2 hPa | 0 mm | - | 0 W/m² | - |
* Rain latest hour (hover to see other rain measurements)
** Current wind speed in m/s (hover to see current wind gust speed)